APW weather

Faleolo International Airport
Apia, A'ana District, Samoa

Public forecast

Using degrees Celsius for public forecast. Weather courtesy of forecast.io.

METAR (pilot weather report)

Report is more than 2 hours old.

Retrieved 2019/03/26 14:00 UTC (2 hours ago):

NSFA 261400Z 07004KT 9999 -RA FEW018 BKN038 26/25 Q1008

TAF (pilot weather forecast)

Retrieved 2019/03/26 12:00 UTC (4 hours ago):

TAF NSFA 261112Z 2612/2712 12006KT 9999 SCT020 PROB40 TEMPO 2700/2712 5000 TSRA BKN015 FEW018CB